sensor_id;sensor_type;location;lat;lon;timestamp;pressure;altitude;pressure_sealevel;temperature;humidity
39051;BME280;24805;55.852;37.644;2024-01-27T00:02:21;99212.44;;;-1.35;62.64
39051;BME280;24805;55.852;37.644;2024-01-27T00:07:23;99207.56;;;-1.40;62.10
39051;BME280;24805;55.852;37.644;2024-01-27T00:12:27;99209.22;;;-1.39;62.05
39051;BME280;24805;55.852;37.644;2024-01-27T00:17:29;99210.50;;;-1.44;62.59
39051;BME280;24805;55.852;37.644;2024-01-27T00:22:31;99217.69;;;-1.48;62.25
39051;BME280;24805;55.852;37.644;2024-01-27T00:27:34;99208.88;;;-1.58;61.93
39051;BME280;24805;55.852;37.644;2024-01-27T00:32:37;99209.69;;;-1.57;62.14
39051;BME280;24805;55.852;37.644;2024-01-27T00:37:39;99217.75;;;-1.60;61.83
39051;BME280;24805;55.852;37.644;2024-01-27T00:42:41;99223.88;;;-1.61;62.63
39051;BME280;24805;55.852;37.644;2024-01-27T00:47:43;99221.50;;;-1.64;62.16
39051;BME280;24805;55.852;37.644;2024-01-27T00:52:46;99225.25;;;-1.68;61.93
39051;BME280;24805;55.852;37.644;2024-01-27T00:57:48;99222.34;;;-1.77;61.81
39051;BME280;24805;55.852;37.644;2024-01-27T01:02:51;99227.00;;;-1.69;62.24
39051;BME280;24805;55.852;37.644;2024-01-27T01:07:53;99212.25;;;-1.68;62.75
39051;BME280;24805;55.852;37.644;2024-01-27T01:12:55;99223.75;;;-1.60;62.45
39051;BME280;24805;55.852;37.644;2024-01-27T01:17:58;99230.50;;;-1.57;62.16
39051;BME280;24805;55.852;37.644;2024-01-27T01:23:00;99241.66;;;-1.55;62.60
39051;BME280;24805;55.852;37.644;2024-01-27T01:28:02;99230.09;;;-1.51;62.10
39051;BME280;24805;55.852;37.644;2024-01-27T01:33:05;99223.84;;;-1.49;61.84
39051;BME280;24805;55.852;37.644;2024-01-27T01:38:07;99227.50;;;-1.51;61.87
39051;BME280;24805;55.852;37.644;2024-01-27T01:43:10;99231.66;;;-1.49;62.42
39051;BME280;24805;55.852;37.644;2024-01-27T01:48:14;99231.53;;;-1.47;62.53
39051;BME280;24805;55.852;37.644;2024-01-27T01:53:16;99234.03;;;-1.46;62.20
39051;BME280;24805;55.852;37.644;2024-01-27T01:58:19;99229.78;;;-1.47;61.88
39051;BME280;24805;55.852;37.644;2024-01-27T02:03:21;99229.88;;;-1.48;61.86
39051;BME280;24805;55.852;37.644;2024-01-27T02:08:24;99235.06;;;-1.48;62.21
39051;BME280;24805;55.852;37.644;2024-01-27T02:13:26;99250.69;;;-1.48;61.48
39051;BME280;24805;55.852;37.644;2024-01-27T02:18:29;99254.03;;;-1.46;61.81
39051;BME280;24805;55.852;37.644;2024-01-27T02:23:32;99253.19;;;-1.47;62.21
39051;BME280;24805;55.852;37.644;2024-01-27T02:28:34;99254.44;;;-1.52;61.57
39051;BME280;24805;55.852;37.644;2024-01-27T02:33:37;99266.31;;;-1.48;61.22
39051;BME280;24805;55.852;37.644;2024-01-27T02:38:39;99277.03;;;-1.53;61.30
39051;BME280;24805;55.852;37.644;2024-01-27T02:43:42;99277.13;;;-1.54;61.49
39051;BME280;24805;55.852;37.644;2024-01-27T02:48:45;99281.50;;;-1.55;61.44
39051;BME280;24805;55.852;37.644;2024-01-27T02:53:48;99278.06;;;-1.55;61.52
39051;BME280;24805;55.852;37.644;2024-01-27T02:58:50;99274.97;;;-1.60;60.88
39051;BME280;24805;55.852;37.644;2024-01-27T03:03:52;99274.97;;;-1.60;61.51
39051;BME280;24805;55.852;37.644;2024-01-27T03:08:55;99271.03;;;-1.66;61.52
39051;BME280;24805;55.852;37.644;2024-01-27T03:13:57;99269.47;;;-1.68;61.62
39051;BME280;24805;55.852;37.644;2024-01-27T03:18:59;99280.19;;;-1.73;61.22
39051;BME280;24805;55.852;37.644;2024-01-27T03:24:02;99293.59;;;-1.79;60.91
39051;BME280;24805;55.852;37.644;2024-01-27T03:29:05;99294.56;;;-1.80;61.65
39051;BME280;24805;55.852;37.644;2024-01-27T03:34:07;99294.31;;;-1.77;62.06
39051;BME280;24805;55.852;37.644;2024-01-27T03:39:09;99301.09;;;-1.75;61.83
39051;BME280;24805;55.852;37.644;2024-01-27T03:44:12;99301.50;;;-1.68;62.25
39051;BME280;24805;55.852;37.644;2024-01-27T03:49:14;99298.69;;;-1.65;61.83
39051;BME280;24805;55.852;37.644;2024-01-27T03:54:17;99308.91;;;-1.62;61.62
39051;BME280;24805;55.852;37.644;2024-01-27T03:59:19;99296.72;;;-1.61;61.24
39051;BME280;24805;55.852;37.644;2024-01-27T04:04:21;99317.00;;;-1.66;60.78
39051;BME280;24805;55.852;37.644;2024-01-27T04:09:24;99326.78;;;-1.70;61.18
39051;BME280;24805;55.852;37.644;2024-01-27T04:14:26;99319.41;;;-1.76;61.56
39051;BME280;24805;55.852;37.644;2024-01-27T04:19:28;99338.03;;;-1.69;61.41
39051;BME280;24805;55.852;37.644;2024-01-27T04:24:30;99338.44;;;-1.76;61.41
39051;BME280;24805;55.852;37.644;2024-01-27T04:29:33;99354.88;;;-1.75;61.35
39051;BME280;24805;55.852;37.644;2024-01-27T04:34:35;99352.56;;;-1.80;61.00
39051;BME280;24805;55.852;37.644;2024-01-27T04:39:37;99352.19;;;-1.86;60.73
39051;BME280;24805;55.852;37.644;2024-01-27T04:44:40;99355.81;;;-1.89;61.17
39051;BME280;24805;55.852;37.644;2024-01-27T04:49:43;99362.69;;;-1.88;60.62
39051;BME280;24805;55.852;37.644;2024-01-27T04:54:46;99359.66;;;-1.94;60.99
39051;BME280;24805;55.852;37.644;2024-01-27T04:59:48;99370.16;;;-1.96;60.74
39051;BME280;24805;55.852;37.644;2024-01-27T05:04:50;99367.88;;;-2.00;60.47
39051;BME280;24805;55.852;37.644;2024-01-27T05:09:52;99377.66;;;-2.04;61.10
39051;BME280;24805;55.852;37.644;2024-01-27T05:14:55;99382.75;;;-2.02;60.83
39051;BME280;24805;55.852;37.644;2024-01-27T05:19:58;99381.38;;;-2.08;60.66
39051;BME280;24805;55.852;37.644;2024-01-27T05:25:01;99391.13;;;-2.12;60.22
39051;BME280;24805;55.852;37.644;2024-01-27T05:30:06;99388.00;;;-2.17;60.38
39051;BME280;24805;55.852;37.644;2024-01-27T05:35:08;99391.00;;;-2.23;60.43
39051;BME280;24805;55.852;37.644;2024-01-27T05:40:12;99398.81;;;-2.23;60.67
39051;BME280;24805;55.852;37.644;2024-01-27T05:45:15;99404.63;;;-2.19;60.52
39051;BME280;24805;55.852;37.644;2024-01-27T05:50:17;99412.22;;;-2.16;59.72
39051;BME280;24805;55.852;37.644;2024-01-27T05:55:20;99423.03;;;-2.22;60.16
39051;BME280;24805;55.852;37.644;2024-01-27T06:00:22;99429.78;;;-2.20;59.97
39051;BME280;24805;55.852;37.644;2024-01-27T06:05:24;99440.91;;;-2.18;60.75
39051;BME280;24805;55.852;37.644;2024-01-27T06:10:27;99434.88;;;-2.18;60.86
39051;BME280;24805;55.852;37.644;2024-01-27T06:15:29;99433.53;;;-2.24;60.22
39051;BME280;24805;55.852;37.644;2024-01-27T06:20:32;99449.34;;;-2.14;60.26
39051;BME280;24805;55.852;37.644;2024-01-27T06:25:34;99440.53;;;-2.12;60.16
39051;BME280;24805;55.852;37.644;2024-01-27T06:30:36;99454.28;;;-1.97;60.72
39051;BME280;24805;55.852;37.644;2024-01-27T06:35:39;99465.75;;;-1.87;59.99
39051;BME280;24805;55.852;37.644;2024-01-27T06:40:41;99457.50;;;-1.93;59.67
39051;BME280;24805;55.852;37.644;2024-01-27T06:45:44;99473.03;;;-1.92;59.78
39051;BME280;24805;55.852;37.644;2024-01-27T06:50:46;99466.06;;;-1.91;59.96
39051;BME280;24805;55.852;37.644;2024-01-27T06:55:48;99468.34;;;-1.87;59.55
39051;BME280;24805;55.852;37.644;2024-01-27T07:00:51;99456.09;;;-1.85;59.41
39051;BME280;24805;55.852;37.644;2024-01-27T07:05:53;99477.00;;;-1.74;59.74
39051;BME280;24805;55.852;37.644;2024-01-27T07:10:56;99482.31;;;-1.75;59.11
39051;BME280;24805;55.852;37.644;2024-01-27T07:15:58;99485.09;;;-1.78;59.79
39051;BME280;24805;55.852;37.644;2024-01-27T07:21:01;99492.03;;;-1.64;59.65
39051;BME280;24805;55.852;37.644;2024-01-27T07:26:08;99503.72;;;-1.45;59.71
39051;BME280;24805;55.852;37.644;2024-01-27T07:31:13;99506.13;;;-1.29;58.62
39051;BME280;24805;55.852;37.644;2024-01-27T07:36:15;99513.00;;;-1.28;58.35
39051;BME280;24805;55.852;37.644;2024-01-27T07:41:18;99511.53;;;-1.32;59.14
39051;BME280;24805;55.852;37.644;2024-01-27T07:46:20;99514.13;;;-1.32;59.21
39051;BME280;24805;55.852;37.644;2024-01-27T07:51:24;99525.59;;;-1.22;58.82
39051;BME280;24805;55.852;37.644;2024-01-27T07:56:27;99537.97;;;-1.13;58.65
39051;BME280;24805;55.852;37.644;2024-01-27T08:01:29;99541.84;;;-1.06;57.80
39051;BME280;24805;55.852;37.644;2024-01-27T08:06:31;99544.97;;;-1.00;58.89
39051;BME280;24805;55.852;37.644;2024-01-27T08:11:34;99546.31;;;-0.95;59.00
39051;BME280;24805;55.852;37.644;2024-01-27T08:16:36;99546.63;;;-0.87;58.70
39051;BME280;24805;55.852;37.644;2024-01-27T08:21:39;99538.28;;;-0.79;58.70
39051;BME280;24805;55.852;37.644;2024-01-27T08:26:41;99553.91;;;-0.79;57.95
39051;BME280;24805;55.852;37.644;2024-01-27T08:31:44;99558.06;;;-0.77;57.88
39051;BME280;24805;55.852;37.644;2024-01-27T08:36:46;99563.41;;;-0.65;58.72
39051;BME280;24805;55.852;37.644;2024-01-27T08:41:49;99575.06;;;-0.46;58.87
39051;BME280;24805;55.852;37.644;2024-01-27T08:46:51;99575.97;;;-0.34;57.24
39051;BME280;24805;55.852;37.644;2024-01-27T08:51:53;99564.59;;;-0.33;58.50
39051;BME280;24805;55.852;37.644;2024-01-27T08:56:57;99571.34;;;-0.18;57.97
39051;BME280;24805;55.852;37.644;2024-01-27T09:01:59;99565.19;;;-0.17;58.08
39051;BME280;24805;55.852;37.644;2024-01-27T09:07:02;99564.84;;;-0.12;57.08
39051;BME280;24805;55.852;37.644;2024-01-27T09:12:04;99571.53;;;-0.08;57.08
39051;BME280;24805;55.852;37.644;2024-01-27T09:17:07;99570.91;;;-0.12;57.16
39051;BME280;24805;55.852;37.644;2024-01-27T09:22:09;99578.50;;;-0.09;57.35
39051;BME280;24805;55.852;37.644;2024-01-27T09:27:11;99575.91;;;-0.09;57.29
39051;BME280;24805;55.852;37.644;2024-01-27T09:32:14;99576.84;;;-0.10;57.57
39051;BME280;24805;55.852;37.644;2024-01-27T09:37:16;99575.41;;;-0.14;57.49
39051;BME280;24805;55.852;37.644;2024-01-27T09:42:20;99574.34;;;-0.11;56.76
39051;BME280;24805;55.852;37.644;2024-01-27T09:47:23;99588.25;;;-0.23;56.57
39051;BME280;24805;55.852;37.644;2024-01-27T09:52:26;99589.84;;;-0.33;56.21
39051;BME280;24805;55.852;37.644;2024-01-27T09:57:28;99596.53;;;-0.42;56.49
39051;BME280;24805;55.852;37.644;2024-01-27T10:02:32;99598.59;;;-0.35;56.52
39051;BME280;24805;55.852;37.644;2024-01-27T10:07:35;99609.84;;;-0.34;56.49
39051;BME280;24805;55.852;37.644;2024-01-27T10:12:41;99620.66;;;-0.15;57.69
39051;BME280;24805;55.852;37.644;2024-01-27T10:17:45;99619.19;;;-0.06;56.29
39051;BME280;24805;55.852;37.644;2024-01-27T10:22:47;99618.38;;;-0.07;56.45
39051;BME280;24805;55.852;37.644;2024-01-27T10:27:49;99609.72;;;-0.07;55.94
39051;BME280;24805;55.852;37.644;2024-01-27T10:32:55;99602.03;;;0.15;56.75
39051;BME280;24805;55.852;37.644;2024-01-27T10:38:02;99607.97;;;0.17;56.65
39051;BME280;24805;55.852;37.644;2024-01-27T10:43:05;99633.81;;;0.20;56.15
39051;BME280;24805;55.852;37.644;2024-01-27T10:48:09;99630.09;;;0.12;56.35
39051;BME280;24805;55.852;37.644;2024-01-27T10:53:22;99632.88;;;0.21;55.97
39051;BME280;24805;55.852;37.644;2024-01-27T10:58:26;99644.72;;;0.14;56.83
39051;BME280;24805;55.852;37.644;2024-01-27T11:03:30;99624.41;;;-0.06;56.04
39051;BME280;24805;55.852;37.644;2024-01-27T11:08:34;99650.28;;;-0.03;56.75
39051;BME280;24805;55.852;37.644;2024-01-27T11:13:36;99656.53;;;-0.06;57.09
39051;BME280;24805;55.852;37.644;2024-01-27T11:18:42;99657.59;;;-0.08;56.06
39051;BME280;24805;55.852;37.644;2024-01-27T11:23:45;99667.28;;;-0.10;56.91
39051;BME280;24805;55.852;37.644;2024-01-27T11:28:49;99681.69;;;-0.05;57.02
39051;BME280;24805;55.852;37.644;2024-01-27T11:33:53;99681.59;;;-0.03;55.77
39051;BME280;24805;55.852;37.644;2024-01-27T11:38:56;99686.03;;;0.08;56.72
39051;BME280;24805;55.852;37.644;2024-01-27T11:43:59;99683.22;;;0.11;56.52
39051;BME280;24805;55.852;37.644;2024-01-27T11:49:03;99693.81;;;0.20;57.37
39051;BME280;24805;55.852;37.644;2024-01-27T11:54:06;99703.47;;;0.20;56.09
39051;BME280;24805;55.852;37.644;2024-01-27T11:59:10;99691.47;;;0.17;56.75
39051;BME280;24805;55.852;37.644;2024-01-27T12:04:12;99712.22;;;0.19;57.00
39051;BME280;24805;55.852;37.644;2024-01-27T12:09:16;99714.00;;;0.18;56.77
39051;BME280;24805;55.852;37.644;2024-01-27T12:14:20;99725.78;;;0.11;56.85
39051;BME280;24805;55.852;37.644;2024-01-27T12:19:22;99742.59;;;0.07;56.17
39051;BME280;24805;55.852;37.644;2024-01-27T12:24:25;99743.00;;;0.01;56.81
39051;BME280;24805;55.852;37.644;2024-01-27T12:29:28;99756.50;;;-0.05;56.08
39051;BME280;24805;55.852;37.644;2024-01-27T12:34:30;99762.31;;;-0.14;56.16
39051;BME280;24805;55.852;37.644;2024-01-27T12:39:32;99778.28;;;-0.19;57.40
39051;BME280;24805;55.852;37.644;2024-01-27T12:44:35;99779.63;;;-0.26;56.35
39051;BME280;24805;55.852;37.644;2024-01-27T12:49:37;99783.28;;;-0.28;56.30
39051;BME280;24805;55.852;37.644;2024-01-27T12:54:41;99789.53;;;-0.31;56.80
39051;BME280;24805;55.852;37.644;2024-01-27T12:59:43;99790.03;;;-0.39;56.33
39051;BME280;24805;55.852;37.644;2024-01-27T13:04:45;99807.97;;;-0.34;57.21
39051;BME280;24805;55.852;37.644;2024-01-27T13:09:48;99786.97;;;-0.58;57.45
39051;BME280;24805;55.852;37.644;2024-01-27T13:14:50;99816.53;;;-0.45;56.73
39051;BME280;24805;55.852;37.644;2024-01-27T13:19:53;99822.97;;;-0.50;56.59
39051;BME280;24805;55.852;37.644;2024-01-27T13:24:55;99832.94;;;-0.57;57.21
39051;BME280;24805;55.852;37.644;2024-01-27T13:29:59;99839.31;;;-0.61;57.87
39051;BME280;24805;55.852;37.644;2024-01-27T13:35:04;99849.28;;;-0.67;57.91
39051;BME280;24805;55.852;37.644;2024-01-27T13:40:07;99837.28;;;-0.70;58.04
39051;BME280;24805;55.852;37.644;2024-01-27T13:45:12;99855.34;;;-0.67;58.64
39051;BME280;24805;55.852;37.644;2024-01-27T13:50:14;99869.00;;;-0.63;57.60
39051;BME280;24805;55.852;37.644;2024-01-27T13:55:17;99870.88;;;-0.65;58.04
39051;BME280;24805;55.852;37.644;2024-01-27T14:00:19;99866.69;;;-0.68;58.24
39051;BME280;24805;55.852;37.644;2024-01-27T14:05:23;99865.19;;;-0.72;58.32
39051;BME280;24805;55.852;37.644;2024-01-27T14:10:26;99879.72;;;-0.68;58.63
39051;BME280;24805;55.852;37.644;2024-01-27T14:15:28;99877.19;;;-0.70;58.58
39051;BME280;24805;55.852;37.644;2024-01-27T14:20:31;99881.56;;;-0.70;58.36
39051;BME280;24805;55.852;37.644;2024-01-27T14:25:35;99890.78;;;-0.64;58.40
39051;BME280;24805;55.852;37.644;2024-01-27T14:30:38;99890.78;;;-0.64;58.90
39051;BME280;24805;55.852;37.644;2024-01-27T14:35:42;99898.28;;;-0.60;58.95
39051;BME280;24805;55.852;37.644;2024-01-27T14:40:44;99894.13;;;-0.62;58.49
39051;BME280;24805;55.852;37.644;2024-01-27T14:45:47;99868.66;;;-0.72;58.08
39051;BME280;24805;55.852;37.644;2024-01-27T14:50:49;99876.56;;;-0.73;58.46
39051;BME280;24805;55.852;37.644;2024-01-27T14:55:56;99891.44;;;-0.61;59.00
39051;BME280;24805;55.852;37.644;2024-01-27T15:00:58;99923.31;;;-0.57;58.77
39051;BME280;24805;55.852;37.644;2024-01-27T15:06:01;99920.72;;;-0.57;57.89
39051;BME280;24805;55.852;37.644;2024-01-27T15:11:05;99926.75;;;-0.57;58.61
39051;BME280;24805;55.852;37.644;2024-01-27T15:16:08;99922.28;;;-0.55;58.03
39051;BME280;24805;55.852;37.644;2024-01-27T15:21:10;99930.94;;;-0.54;58.41
39051;BME280;24805;55.852;37.644;2024-01-27T15:26:13;99934.28;;;-0.52;58.93
39051;BME280;24805;55.852;37.644;2024-01-27T15:31:15;99932.34;;;-0.49;58.97
39051;BME280;24805;55.852;37.644;2024-01-27T15:36:18;99935.59;;;-0.45;58.91
39051;BME280;24805;55.852;37.644;2024-01-27T15:41:20;99932.69;;;-0.41;58.37
39051;BME280;24805;55.852;37.644;2024-01-27T15:46:22;99904.97;;;-0.56;58.62
39051;BME280;24805;55.852;37.644;2024-01-27T15:51:24;99934.56;;;-0.43;58.06
39051;BME280;24805;55.852;37.644;2024-01-27T15:56:27;99941.00;;;-0.48;58.69
39051;BME280;24805;55.852;37.644;2024-01-27T16:01:29;99943.03;;;-0.53;58.19
39051;BME280;24805;55.852;37.644;2024-01-27T16:06:31;99960.53;;;-0.55;58.87
39051;BME280;24805;55.852;37.644;2024-01-27T16:11:34;99963.25;;;-0.57;58.45
39051;BME280;24805;55.852;37.644;2024-01-27T16:16:38;99974.22;;;-0.52;58.57
39051;BME280;24805;55.852;37.644;2024-01-27T16:21:40;99974.59;;;-0.58;57.72
39051;BME280;24805;55.852;37.644;2024-01-27T16:26:43;99983.16;;;-0.56;58.14
39051;BME280;24805;55.852;37.644;2024-01-27T16:31:45;99992.47;;;-0.52;58.34
39051;BME280;24805;55.852;37.644;2024-01-27T16:36:47;99989.59;;;-0.47;58.97
39051;BME280;24805;55.852;37.644;2024-01-27T16:41:50;99992.00;;;-0.44;58.08
39051;BME280;24805;55.852;37.644;2024-01-27T16:46:52;100002.53;;;-0.46;57.67
39051;BME280;24805;55.852;37.644;2024-01-27T16:51:55;99998.78;;;-0.42;58.02
39051;BME280;24805;55.852;37.644;2024-01-27T16:56:57;100007.13;;;-0.37;58.09
39051;BME280;24805;55.852;37.644;2024-01-27T17:01:59;100007.88;;;-0.35;58.47
39051;BME280;24805;55.852;37.644;2024-01-27T17:07:02;100017.19;;;-0.30;58.44
39051;BME280;24805;55.852;37.644;2024-01-27T17:12:04;100026.78;;;-0.31;58.58
39051;BME280;24805;55.852;37.644;2024-01-27T17:17:08;100028.00;;;-0.37;58.43
39051;BME280;24805;55.852;37.644;2024-01-27T17:22:10;100045.41;;;-0.37;57.68
39051;BME280;24805;55.852;37.644;2024-01-27T17:27:13;100027.19;;;-0.51;57.50
39051;BME280;24805;55.852;37.644;2024-01-27T17:32:15;100049.34;;;-0.44;57.70
39051;BME280;24805;55.852;37.644;2024-01-27T17:37:17;100055.59;;;-0.47;58.51
39051;BME280;24805;55.852;37.644;2024-01-27T17:42:20;100057.53;;;-0.50;57.56
39051;BME280;24805;55.852;37.644;2024-01-27T17:47:22;100027.22;;;-0.65;58.08
39051;BME280;24805;55.852;37.644;2024-01-27T17:52:24;100060.22;;;-0.52;58.33
39051;BME280;24805;55.852;37.644;2024-01-27T17:57:27;100060.22;;;-0.52;58.48
39051;BME280;24805;55.852;37.644;2024-01-27T18:02:32;100058.75;;;-0.56;57.83
39051;BME280;24805;55.852;37.644;2024-01-27T18:07:35;100079.91;;;-0.60;57.79
39051;BME280;24805;55.852;37.644;2024-01-27T18:12:37;100083.69;;;-0.66;57.78
39051;BME280;24805;55.852;37.644;2024-01-27T18:17:44;100090.19;;;-0.73;57.98
39051;BME280;24805;55.852;37.644;2024-01-27T18:22:46;100083.50;;;-0.77;57.70
39051;BME280;24805;55.852;37.644;2024-01-27T18:27:48;100090.94;;;-0.85;57.93
39051;BME280;24805;55.852;37.644;2024-01-27T18:32:51;100093.66;;;-0.87;57.97
39051;BME280;24805;55.852;37.644;2024-01-27T18:37:53;100086.75;;;-0.88;58.28
39051;BME280;24805;55.852;37.644;2024-01-27T18:42:55;100092.72;;;-0.86;58.55
39051;BME280;24805;55.852;37.644;2024-01-27T18:47:58;100109.09;;;-0.84;58.32
39051;BME280;24805;55.852;37.644;2024-01-27T18:53:03;100117.84;;;-0.85;57.98
39051;BME280;24805;55.852;37.644;2024-01-27T18:58:05;100124.16;;;-0.89;57.74
39051;BME280;24805;55.852;37.644;2024-01-27T19:03:13;100130.38;;;-0.91;58.65
39051;BME280;24805;55.852;37.644;2024-01-27T19:08:16;100126.94;;;-0.92;58.63
39051;BME280;24805;55.852;37.644;2024-01-27T19:13:18;100103.38;;;-1.05;58.38
39051;BME280;24805;55.852;37.644;2024-01-27T19:18:21;100139.59;;;-0.86;59.05
39051;BME280;24805;55.852;37.644;2024-01-27T19:23:24;100144.91;;;-0.87;58.40
39051;BME280;24805;55.852;37.644;2024-01-27T19:28:26;100145.47;;;-0.82;59.34
39051;BME280;24805;55.852;37.644;2024-01-27T19:33:28;100152.38;;;-0.81;58.54
39051;BME280;24805;55.852;37.644;2024-01-27T19:38:31;100156.00;;;-0.84;58.61
39051;BME280;24805;55.852;37.644;2024-01-27T19:43:34;100168.19;;;-0.84;58.34
39051;BME280;24805;55.852;37.644;2024-01-27T19:48:37;100164.66;;;-0.83;58.95
39051;BME280;24805;55.852;37.644;2024-01-27T19:53:40;100170.03;;;-0.86;58.11
39051;BME280;24805;55.852;37.644;2024-01-27T19:58:42;100177.66;;;-0.83;57.87
39051;BME280;24805;55.852;37.644;2024-01-27T20:03:44;100166.66;;;-0.88;57.55
39051;BME280;24805;55.852;37.644;2024-01-27T20:08:49;100175.06;;;-0.83;57.68
39051;BME280;24805;55.852;37.644;2024-01-27T20:13:51;100183.22;;;-0.89;57.19
39051;BME280;24805;55.852;37.644;2024-01-27T20:18:54;100181.06;;;-0.97;58.01
39051;BME280;24805;55.852;37.644;2024-01-27T20:23:57;100195.09;;;-0.99;57.61
39051;BME280;24805;55.852;37.644;2024-01-27T20:28:59;100202.72;;;-0.96;57.31
39051;BME280;24805;55.852;37.644;2024-01-27T20:34:02;100210.38;;;-0.93;58.44
39051;BME280;24805;55.852;37.644;2024-01-27T20:39:04;100214.66;;;-0.92;58.54
39051;BME280;24805;55.852;37.644;2024-01-27T20:44:11;100215.75;;;-0.96;57.75
39051;BME280;24805;55.852;37.644;2024-01-27T20:49:13;100212.41;;;-0.98;58.15
39051;BME280;24805;55.852;37.644;2024-01-27T20:54:16;100210.91;;;-1.02;58.94
39051;BME280;24805;55.852;37.644;2024-01-27T20:59:19;100220.31;;;-1.00;58.82
39051;BME280;24805;55.852;37.644;2024-01-27T21:04:21;100229.06;;;-1.01;58.03
39051;BME280;24805;55.852;37.644;2024-01-27T21:09:27;100235.38;;;-1.05;58.30
39051;BME280;24805;55.852;37.644;2024-01-27T21:14:29;100238.91;;;-1.06;58.24
39051;BME280;24805;55.852;37.644;2024-01-27T21:19:32;100245.03;;;-1.07;58.25
39051;BME280;24805;55.852;37.644;2024-01-27T21:24:39;100239.97;;;-1.10;58.48
39051;BME280;24805;55.852;37.644;2024-01-27T21:29:41;100247.03;;;-1.12;58.86
39051;BME280;24805;55.852;37.644;2024-01-27T21:34:43;100248.63;;;-1.10;59.32
39051;BME280;24805;55.852;37.644;2024-01-27T21:39:46;100250.91;;;-1.03;59.09
39051;BME280;24805;55.852;37.644;2024-01-27T21:44:48;100274.34;;;-1.03;58.78
39051;BME280;24805;55.852;37.644;2024-01-27T21:49:50;100266.53;;;-1.03;59.28
39051;BME280;24805;55.852;37.644;2024-01-27T21:54:53;100274.34;;;-1.03;58.28
39051;BME280;24805;55.852;37.644;2024-01-27T21:59:57;100277.78;;;-1.03;58.51
39051;BME280;24805;55.852;37.644;2024-01-27T22:04:59;100287.19;;;-1.00;57.83
39051;BME280;24805;55.852;37.644;2024-01-27T22:10:03;100279.28;;;-0.99;57.54
39051;BME280;24805;55.852;37.644;2024-01-27T22:15:07;100288.03;;;-1.00;57.76
39051;BME280;24805;55.852;37.644;2024-01-27T22:20:10;100287.94;;;-0.98;57.81
39051;BME280;24805;55.852;37.644;2024-01-27T22:25:12;100285.31;;;-0.98;58.33
39051;BME280;24805;55.852;37.644;2024-01-27T22:30:14;100284.97;;;-0.92;58.11
39051;BME280;24805;55.852;37.644;2024-01-27T22:35:17;100280.94;;;-0.98;58.68
39051;BME280;24805;55.852;37.644;2024-01-27T22:40:20;100299.59;;;-0.90;58.37
39051;BME280;24805;55.852;37.644;2024-01-27T22:45:23;100292.63;;;-0.89;58.28
39051;BME280;24805;55.852;37.644;2024-01-27T22:50:25;100292.97;;;-0.95;58.89
39051;BME280;24805;55.852;37.644;2024-01-27T22:55:28;100308.09;;;-0.86;59.16
39051;BME280;24805;55.852;37.644;2024-01-27T23:00:30;100301.13;;;-0.86;58.57
39051;BME280;24805;55.852;37.644;2024-01-27T23:05:36;100300.19;;;-0.85;59.17
39051;BME280;24805;55.852;37.644;2024-01-27T23:10:39;100298.91;;;-0.78;59.11
39051;BME280;24805;55.852;37.644;2024-01-27T23:15:41;100309.31;;;-0.78;59.64
39051;BME280;24805;55.852;37.644;2024-01-27T23:20:46;100306.72;;;-0.78;59.36
39051;BME280;24805;55.852;37.644;2024-01-27T23:25:48;100319.66;;;-0.76;59.09
39051;BME280;24805;55.852;37.644;2024-01-27T23:30:50;100321.34;;;-0.75;59.52
39051;BME280;24805;55.852;37.644;2024-01-27T23:35:53;100317.91;;;-0.76;59.44
39051;BME280;24805;55.852;37.644;2024-01-27T23:40:56;100330.09;;;-0.76;59.85
39051;BME280;24805;55.852;37.644;2024-01-27T23:45:59;100331.94;;;-0.78;59.71
39051;BME280;24805;55.852;37.644;2024-01-27T23:51:01;100346.00;;;-0.81;59.40
39051;BME280;24805;55.852;37.644;2024-01-27T23:56:03;100348.50;;;-0.79;59.10
